Wausau, Florida
Current Conditions -  °F | °C
As of 1:58 PM on Monday 26 Jan 2015 (Local Time) from K1J0 Reporting Station
Few Clouds Few Clouds  
Wind Chill: 12°   Ceiling: Unl
Heat Index: 12°   Visibility: 10mi
Dew Point:   Wind: 9mph
Humidity: 55%   Direction: 310°NW
Pressure: 29.96"   Gusts: 20mph
Location:  30.63°N, 85.59°W
Report Text: K1J0 261958Z AUTO 31008G17KT 10SM FEW041 12/03 A2996 RMK AO2 SLP130 T01170028
Loading
Personal Weather Stations






























Interactive Weather Map New forecast layout! Learn more

10-Day Weather Forecast

Advertisements
Track Severe Weather on mobile